createdAt,value
2023-11-15T00:00:23.569Z,3.10
2023-11-15T00:07:42.751Z,2.47
2023-11-15T00:15:01.853Z,2.80
2023-11-15T00:22:27.095Z,2.40
2023-11-15T00:29:46.314Z,2.60
2023-11-15T00:37:05.524Z,2.35
2023-11-15T00:44:26.070Z,2.60
2023-11-15T00:51:44.904Z,2.38
2023-11-15T00:59:04.310Z,2.20
2023-11-15T01:06:24.475Z,1.90
2023-11-15T01:13:42.710Z,1.90
2023-11-15T01:21:02.532Z,1.42
2023-11-15T01:28:23.156Z,1.42
2023-11-15T01:35:41.798Z,1.20
2023-11-15T01:43:00.505Z,1.10
2023-11-15T01:50:20.414Z,1.15
2023-11-15T01:57:39.794Z,0.98
2023-11-15T02:04:57.876Z,1.00
2023-11-15T02:12:18.914Z,0.93
2023-11-15T02:19:38.728Z,0.65
2023-11-15T02:26:59.075Z,0.60
2023-11-15T02:34:19.718Z,0.80
2023-11-15T02:41:37.817Z,0.95
2023-11-15T02:48:58.234Z,1.25
2023-11-15T02:56:16.828Z,1.35
2023-11-15T03:03:37.535Z,0.85
2023-11-15T03:10:57.726Z,1.20
2023-11-15T03:18:15.877Z,1.30
2023-11-15T03:25:34.692Z,1.65
2023-11-15T03:32:54.264Z,1.80
2023-11-15T03:40:12.684Z,1.95
2023-11-15T03:47:31.533Z,1.52
2023-11-15T03:54:51.159Z,1.27
2023-11-15T04:02:10.130Z,1.20
2023-11-15T04:09:28.440Z,1.15
2023-11-15T04:16:48.698Z,1.30
2023-11-15T04:24:07.264Z,1.45
2023-11-15T04:31:26.532Z,1.65
2023-11-15T04:38:46.776Z,1.40
2023-11-15T04:46:05.253Z,1.00
2023-11-15T04:53:25.576Z,1.45
2023-11-15T05:00:45.190Z,1.42
2023-11-15T05:08:04.060Z,1.40
2023-11-15T05:15:22.812Z,1.50
2023-11-15T05:22:42.637Z,1.80
2023-11-15T05:30:00.815Z,1.73
2023-11-15T05:37:18.986Z,2.05
2023-11-15T05:44:39.030Z,2.20
2023-11-15T05:51:57.620Z,2.22
2023-11-15T05:59:16.073Z,2.67
2023-11-15T06:06:35.966Z,2.60
2023-11-15T06:13:54.179Z,3.05
2023-11-15T06:21:13.410Z,3.35
2023-11-15T06:28:33.736Z,3.63
2023-11-15T06:35:52.076Z,3.90
2023-11-15T06:43:10.178Z,3.53
2023-11-15T06:50:31.599Z,3.13
2023-11-15T06:57:49.829Z,2.70
2023-11-15T07:05:08.374Z,2.97
2023-11-15T07:12:30.643Z,2.78
2023-11-15T07:19:49.866Z,3.08
2023-11-15T07:27:08.892Z,3.20
2023-11-15T07:34:29.475Z,3.22
2023-11-15T07:41:48.221Z,3.10
2023-11-15T07:49:08.907Z,3.65
2023-11-15T07:56:28.547Z,3.47
2023-11-15T08:03:47.602Z,3.05
2023-11-15T08:11:06.221Z,2.67
2023-11-15T08:18:27.484Z,3.22
2023-11-15T08:25:48.914Z,2.80
2023-11-15T08:33:08.007Z,2.85
2023-11-15T08:40:32.401Z,2.95
2023-11-15T08:47:52.022Z,3.97
2023-11-15T08:55:12.920Z,3.35
2023-11-15T09:02:35.014Z,2.88
2023-11-15T09:09:53.820Z,2.30
2023-11-15T09:17:18.094Z,1.50
2023-11-15T09:24:38.498Z,1.80
2023-11-15T09:31:58.059Z,1.92
2023-11-15T09:39:18.435Z,1.80
2023-11-15T09:46:39.307Z,1.77
2023-11-15T09:54:08.210Z,1.10
2023-11-15T10:01:35.741Z,1.30
2023-11-15T10:08:56.442Z,1.75
2023-11-15T10:16:35.784Z,1.50
2023-11-15T10:24:12.283Z,1.17
2023-11-15T10:31:30.471Z,1.10
2023-11-15T10:38:52.284Z,1.20
2023-11-15T10:46:14.288Z,1.20
2023-11-15T10:53:33.453Z,1.20
2023-11-15T11:00:55.856Z,1.35
2023-11-15T11:08:24.105Z,1.10
2023-11-15T11:15:42.548Z,0.80
2023-11-15T11:23:08.854Z,1.30
2023-11-15T11:30:29.706Z,1.40
2023-11-15T11:37:51.653Z,1.17
2023-11-15T11:45:11.477Z,0.95
2023-11-15T11:52:31.051Z,3.25
2023-11-15T12:00:00.486Z,1.20
2023-11-15T12:07:19.992Z,1.20
2023-11-15T12:14:50.864Z,1.50
2023-11-15T12:22:09.466Z,1.20
2023-11-15T12:29:31.408Z,2.50
2023-11-15T12:36:52.269Z,1.27
2023-11-15T12:44:14.130Z,1.80
2023-11-15T12:51:34.187Z,1.50
2023-11-15T12:58:56.882Z,1.70
2023-11-15T13:06:16.019Z,1.30
2023-11-15T13:13:35.257Z,1.30
2023-11-15T13:20:59.286Z,1.42
2023-11-15T13:28:19.973Z,1.15
2023-11-15T13:35:38.771Z,0.80
2023-11-15T13:43:00.370Z,1.60
2023-11-15T13:50:18.941Z,1.45
2023-11-15T13:57:39.814Z,1.48
2023-11-15T14:05:02.773Z,1.40
2023-11-15T14:12:21.198Z,1.40
2023-11-15T14:19:41.348Z,1.40
2023-11-15T14:27:05.420Z,1.85
2023-11-15T14:34:24.419Z,2.47
2023-11-15T14:41:43.735Z,1.58
2023-11-15T14:49:05.549Z,1.50
2023-11-15T14:56:25.639Z,1.50
2023-11-15T15:03:44.231Z,1.48
2023-11-15T15:11:04.649Z,1.40
2023-11-15T15:18:29.826Z,2.10
2023-11-15T15:25:52.838Z,1.70
2023-11-15T15:33:12.659Z,1.70
2023-11-15T15:40:38.184Z,2.63
2023-11-15T15:47:57.860Z,2.90
2023-11-15T15:55:18.344Z,2.30
2023-11-15T16:02:36.666Z,2.92
2023-11-15T16:09:55.794Z,3.72
2023-11-15T16:17:15.775Z,2.80
2023-11-15T16:24:34.934Z,3.85
2023-11-15T16:31:53.506Z,3.35
2023-11-15T16:39:15.071Z,3.60
2023-11-15T16:46:34.442Z,3.13
2023-11-15T16:53:54.834Z,4.30
2023-11-15T17:01:16.770Z,2.97
2023-11-15T17:08:36.133Z,3.10
2023-11-15T17:15:54.452Z,3.10
2023-11-15T17:23:15.061Z,3.33
2023-11-15T17:30:34.757Z,3.13
2023-11-15T17:37:55.695Z,2.90
2023-11-15T17:45:17.196Z,3.47
2023-11-15T17:52:37.950Z,4.85
2023-11-15T17:59:56.050Z,4.53
2023-11-15T18:07:15.827Z,4.32
2023-11-15T18:14:34.144Z,5.15
2023-11-15T18:21:53.140Z,10.15
2023-11-15T18:29:12.950Z,4.50
2023-11-15T18:36:32.485Z,3.50
2023-11-15T18:43:51.138Z,3.58
2023-11-15T18:51:11.157Z,3.67
2023-11-15T18:58:29.612Z,4.88
2023-11-15T19:05:50.880Z,3.47
2023-11-15T19:13:11.005Z,3.53
2023-11-15T19:20:31.706Z,3.20
2023-11-15T19:27:51.154Z,3.90
2023-11-15T19:35:12.219Z,3.88
2023-11-15T19:42:33.548Z,3.50
2023-11-15T19:49:52.261Z,4.85
2023-11-15T19:57:14.389Z,5.82
2023-11-15T20:04:33.830Z,5.63
2023-11-15T20:11:52.455Z,5.10
2023-11-15T20:19:13.276Z,5.00
2023-11-15T20:26:32.562Z,8.60
2023-11-15T20:33:51.164Z,4.75
2023-11-15T20:41:11.950Z,5.00
2023-11-15T20:48:30.839Z,7.97
2023-11-15T20:55:49.283Z,13.27
2023-11-15T21:03:09.819Z,7.22
2023-11-15T21:10:31.278Z,6.93
2023-11-15T21:17:49.501Z,5.45
2023-11-15T21:25:12.624Z,3.53
2023-11-15T21:32:31.674Z,4.35
2023-11-15T21:39:52.450Z,4.32
2023-11-15T21:47:12.175Z,6.10
2023-11-15T21:54:31.004Z,4.97
2023-11-15T22:01:56.382Z,4.05
2023-11-15T22:09:18.284Z,4.53
2023-11-15T22:16:36.432Z,3.97
2023-11-15T22:23:55.407Z,4.65
2023-11-15T22:31:15.702Z,8.13
2023-11-15T22:38:33.801Z,4.07
2023-11-15T22:45:53.764Z,4.18
2023-11-15T22:53:13.795Z,4.43
2023-11-15T23:00:35.133Z,4.95
2023-11-15T23:07:55.669Z,4.32
2023-11-15T23:15:16.026Z,4.32
2023-11-15T23:22:36.491Z,4.85
2023-11-15T23:29:55.188Z,4.60
2023-11-15T23:37:16.994Z,4.60
2023-11-15T23:44:36.909Z,4.78
2023-11-15T23:51:55.768Z,4.90
2023-11-15T23:59:16.373Z,4.93
